sensor_id;sensor_type;location;lat;lon;timestamp;P1;durP1;ratioP1;P2;durP2;ratioP2
71351;SDS011;59159;51.652;4.864;2023-03-11T00:01:38;2.58;;;0.52;;
71351;SDS011;59159;51.652;4.864;2023-03-11T00:04:05;5.13;;;0.70;;
71351;SDS011;59159;51.652;4.864;2023-03-11T00:06:33;3.97;;;0.90;;
71351;SDS011;59159;51.652;4.864;2023-03-11T00:08:59;3.05;;;0.70;;
71351;SDS011;59159;51.652;4.864;2023-03-11T00:11:25;3.92;;;0.88;;
71351;SDS011;59159;51.652;4.864;2023-03-11T00:13:53;2.73;;;0.70;;
71351;SDS011;59159;51.652;4.864;2023-03-11T00:16:19;4.43;;;0.68;;
71351;SDS011;59159;51.652;4.864;2023-03-11T00:18:45;3.08;;;0.77;;
71351;SDS011;59159;51.652;4.864;2023-03-11T00:21:13;2.75;;;0.70;;
71351;SDS011;59159;51.652;4.864;2023-03-11T00:23:40;2.73;;;0.70;;
71351;SDS011;59159;51.652;4.864;2023-03-11T00:26:06;3.67;;;0.70;;
71351;SDS011;59159;51.652;4.864;2023-03-11T00:28:31;2.97;;;0.65;;
71351;SDS011;59159;51.652;4.864;2023-03-11T00:30:57;1.93;;;0.33;;
71351;SDS011;59159;51.652;4.864;2023-03-11T00:33:23;4.28;;;0.73;;
71351;SDS011;59159;51.652;4.864;2023-03-11T00:35:50;3.97;;;0.77;;
71351;SDS011;59159;51.652;4.864;2023-03-11T00:38:16;2.27;;;0.60;;
71351;SDS011;59159;51.652;4.864;2023-03-11T00:40:42;2.78;;;0.60;;
71351;SDS011;59159;51.652;4.864;2023-03-11T00:43:09;2.25;;;0.52;;
71351;SDS011;59159;51.652;4.864;2023-03-11T00:45:35;3.30;;;0.95;;
71351;SDS011;59159;51.652;4.864;2023-03-11T00:48:01;3.40;;;0.60;;
71351;SDS011;59159;51.652;4.864;2023-03-11T00:50:28;2.88;;;0.98;;
71351;SDS011;59159;51.652;4.864;2023-03-11T00:52:55;4.70;;;0.80;;
71351;SDS011;59159;51.652;4.864;2023-03-11T00:55:22;2.33;;;0.60;;
71351;SDS011;59159;51.652;4.864;2023-03-11T00:57:52;3.80;;;0.68;;
71351;SDS011;59159;51.652;4.864;2023-03-11T01:00:20;2.55;;;0.68;;
71351;SDS011;59159;51.652;4.864;2023-03-11T01:02:46;3.77;;;1.10;;
71351;SDS011;59159;51.652;4.864;2023-03-11T01:05:12;4.07;;;0.80;;
71351;SDS011;59159;51.652;4.864;2023-03-11T01:07:39;2.92;;;0.70;;
71351;SDS011;59159;51.652;4.864;2023-03-11T01:10:05;3.40;;;0.73;;
71351;SDS011;59159;51.652;4.864;2023-03-11T01:12:31;3.73;;;0.90;;
71351;SDS011;59159;51.652;4.864;2023-03-11T01:14:57;4.18;;;0.85;;
71351;SDS011;59159;51.652;4.864;2023-03-11T01:17:23;3.30;;;0.77;;
71351;SDS011;59159;51.652;4.864;2023-03-11T01:19:49;3.07;;;0.63;;
71351;SDS011;59159;51.652;4.864;2023-03-11T01:22:15;4.00;;;0.73;;
71351;SDS011;59159;51.652;4.864;2023-03-11T01:24:41;3.17;;;0.80;;
71351;SDS011;59159;51.652;4.864;2023-03-11T01:27:07;5.00;;;0.83;;
71351;SDS011;59159;51.652;4.864;2023-03-11T01:29:33;3.50;;;0.73;;
71351;SDS011;59159;51.652;4.864;2023-03-11T01:31:59;4.80;;;0.85;;
71351;SDS011;59159;51.652;4.864;2023-03-11T01:34:25;4.93;;;0.88;;
71351;SDS011;59159;51.652;4.864;2023-03-11T01:36:51;3.80;;;0.80;;
71351;SDS011;59159;51.652;4.864;2023-03-11T01:39:17;3.22;;;0.65;;
71351;SDS011;59159;51.652;4.864;2023-03-11T01:41:43;3.75;;;0.85;;
71351;SDS011;59159;51.652;4.864;2023-03-11T01:44:10;3.30;;;0.70;;
71351;SDS011;59159;51.652;4.864;2023-03-11T01:49:18;3.22;;;0.70;;
71351;SDS011;59159;51.652;4.864;2023-03-11T01:51:45;2.57;;;0.63;;
71351;SDS011;59159;51.652;4.864;2023-03-11T01:54:14;3.60;;;0.70;;
71351;SDS011;59159;51.652;4.864;2023-03-11T01:56:41;3.08;;;0.68;;
71351;SDS011;59159;51.652;4.864;2023-03-11T01:59:07;3.92;;;0.75;;
71351;SDS011;59159;51.652;4.864;2023-03-11T02:01:34;2.30;;;0.60;;
71351;SDS011;59159;51.652;4.864;2023-03-11T02:04:05;4.13;;;0.77;;
71351;SDS011;59159;51.652;4.864;2023-03-11T02:06:31;2.17;;;0.52;;
71351;SDS011;59159;51.652;4.864;2023-03-11T02:08:58;3.23;;;1.03;;
71351;SDS011;59159;51.652;4.864;2023-03-11T02:11:26;2.97;;;0.77;;
71351;SDS011;59159;51.652;4.864;2023-03-11T02:13:55;2.75;;;0.68;;
71351;SDS011;59159;51.652;4.864;2023-03-11T02:16:21;3.17;;;0.77;;
71351;SDS011;59159;51.652;4.864;2023-03-11T02:18:47;2.95;;;0.60;;
71351;SDS011;59159;51.652;4.864;2023-03-11T02:21:24;4.15;;;0.80;;
71351;SDS011;59159;51.652;4.864;2023-03-11T02:23:58;3.28;;;0.80;;
71351;SDS011;59159;51.652;4.864;2023-03-11T02:29:05;2.45;;;0.57;;
71351;SDS011;59159;51.652;4.864;2023-03-11T02:31:32;3.28;;;0.68;;
71351;SDS011;59159;51.652;4.864;2023-03-11T02:33:59;3.17;;;0.80;;
71351;SDS011;59159;51.652;4.864;2023-03-11T02:36:40;2.88;;;0.70;;
71351;SDS011;59159;51.652;4.864;2023-03-11T02:39:06;3.78;;;0.65;;
71351;SDS011;59159;51.652;4.864;2023-03-11T02:41:34;2.53;;;0.60;;
71351;SDS011;59159;51.652;4.864;2023-03-11T02:44:01;3.22;;;0.60;;
71351;SDS011;59159;51.652;4.864;2023-03-11T02:46:27;3.15;;;0.80;;
71351;SDS011;59159;51.652;4.864;2023-03-11T02:48:53;3.72;;;0.95;;
71351;SDS011;59159;51.652;4.864;2023-03-11T02:51:20;3.03;;;0.70;;
71351;SDS011;59159;51.652;4.864;2023-03-11T02:53:48;2.55;;;0.60;;
71351;SDS011;59159;51.652;4.864;2023-03-11T02:56:15;2.72;;;0.82;;
71351;SDS011;59159;51.652;4.864;2023-03-11T02:58:41;3.20;;;0.60;;
71351;SDS011;59159;51.652;4.864;2023-03-11T03:01:07;2.95;;;0.70;;
71351;SDS011;59159;51.652;4.864;2023-03-11T03:03:33;3.50;;;0.70;;
71351;SDS011;59159;51.652;4.864;2023-03-11T03:05:59;2.53;;;0.70;;
71351;SDS011;59159;51.652;4.864;2023-03-11T03:08:25;1.88;;;0.50;;
71351;SDS011;59159;51.652;4.864;2023-03-11T03:10:51;3.65;;;0.98;;
71351;SDS011;59159;51.652;4.864;2023-03-11T03:13:17;3.38;;;0.60;;
71351;SDS011;59159;51.652;4.864;2023-03-11T03:15:43;3.33;;;0.67;;
71351;SDS011;59159;51.652;4.864;2023-03-11T03:18:09;3.38;;;0.80;;
71351;SDS011;59159;51.652;4.864;2023-03-11T03:20:35;4.50;;;0.80;;
71351;SDS011;59159;51.652;4.864;2023-03-11T03:23:01;3.40;;;0.70;;
71351;SDS011;59159;51.652;4.864;2023-03-11T03:25:27;3.83;;;0.57;;
71351;SDS011;59159;51.652;4.864;2023-03-11T03:27:53;3.20;;;0.70;;
71351;SDS011;59159;51.652;4.864;2023-03-11T03:30:19;3.73;;;0.90;;
71351;SDS011;59159;51.652;4.864;2023-03-11T03:32:45;2.75;;;0.77;;
71351;SDS011;59159;51.652;4.864;2023-03-11T03:35:11;3.47;;;0.60;;
71351;SDS011;59159;51.652;4.864;2023-03-11T03:37:37;4.10;;;0.60;;
71351;SDS011;59159;51.652;4.864;2023-03-11T03:40:04;3.70;;;0.80;;
71351;SDS011;59159;51.652;4.864;2023-03-11T03:42:34;3.55;;;0.70;;
71351;SDS011;59159;51.652;4.864;2023-03-11T03:45:00;3.05;;;0.65;;
71351;SDS011;59159;51.652;4.864;2023-03-11T03:47:26;2.80;;;0.60;;
71351;SDS011;59159;51.652;4.864;2023-03-11T03:49:52;3.75;;;0.80;;
71351;SDS011;59159;51.652;4.864;2023-03-11T03:52:18;2.95;;;0.75;;
71351;SDS011;59159;51.652;4.864;2023-03-11T03:54:44;3.53;;;0.80;;
71351;SDS011;59159;51.652;4.864;2023-03-11T03:57:10;2.53;;;0.60;;
71351;SDS011;59159;51.652;4.864;2023-03-11T03:59:36;2.42;;;0.68;;
71351;SDS011;59159;51.652;4.864;2023-03-11T04:02:02;3.63;;;0.90;;
71351;SDS011;59159;51.652;4.864;2023-03-11T04:04:28;3.03;;;0.73;;
71351;SDS011;59159;51.652;4.864;2023-03-11T04:06:54;3.35;;;0.68;;
71351;SDS011;59159;51.652;4.864;2023-03-11T04:09:20;3.30;;;0.90;;
71351;SDS011;59159;51.652;4.864;2023-03-11T04:11:46;3.33;;;0.70;;
71351;SDS011;59159;51.652;4.864;2023-03-11T04:14:13;3.10;;;0.52;;
71351;SDS011;59159;51.652;4.864;2023-03-11T04:16:39;2.55;;;0.68;;
71351;SDS011;59159;51.652;4.864;2023-03-11T04:19:05;2.93;;;0.60;;
71351;SDS011;59159;51.652;4.864;2023-03-11T04:21:31;4.97;;;0.90;;
71351;SDS011;59159;51.652;4.864;2023-03-11T04:23:57;3.58;;;0.68;;
71351;SDS011;59159;51.652;4.864;2023-03-11T04:26:23;3.60;;;0.93;;
71351;SDS011;59159;51.652;4.864;2023-03-11T04:28:49;3.23;;;0.50;;
71351;SDS011;59159;51.652;4.864;2023-03-11T04:31:15;3.40;;;0.80;;
71351;SDS011;59159;51.652;4.864;2023-03-11T04:33:41;4.72;;;0.80;;
71351;SDS011;59159;51.652;4.864;2023-03-11T04:36:07;2.70;;;0.63;;
71351;SDS011;59159;51.652;4.864;2023-03-11T04:38:34;2.45;;;0.63;;
71351;SDS011;59159;51.652;4.864;2023-03-11T04:41:00;4.03;;;0.70;;
71351;SDS011;59159;51.652;4.864;2023-03-11T04:43:26;1.40;;;0.50;;
71351;SDS011;59159;51.652;4.864;2023-03-11T04:45:52;4.07;;;0.75;;
71351;SDS011;59159;51.652;4.864;2023-03-11T04:48:18;3.85;;;0.80;;
71351;SDS011;59159;51.652;4.864;2023-03-11T04:50:44;4.00;;;1.00;;
71351;SDS011;59159;51.652;4.864;2023-03-11T04:53:10;2.30;;;0.70;;
71351;SDS011;59159;51.652;4.864;2023-03-11T04:55:36;3.20;;;0.90;;
71351;SDS011;59159;51.652;4.864;2023-03-11T04:58:03;3.08;;;0.70;;
71351;SDS011;59159;51.652;4.864;2023-03-11T05:00:29;2.67;;;0.63;;
71351;SDS011;59159;51.652;4.864;2023-03-11T05:02:55;2.88;;;0.80;;
71351;SDS011;59159;51.652;4.864;2023-03-11T05:05:21;2.85;;;0.57;;
71351;SDS011;59159;51.652;4.864;2023-03-11T05:07:47;3.23;;;0.63;;
71351;SDS011;59159;51.652;4.864;2023-03-11T05:10:13;2.97;;;0.77;;
71351;SDS011;59159;51.652;4.864;2023-03-11T05:12:46;4.57;;;1.30;;
71351;SDS011;59159;51.652;4.864;2023-03-11T05:15:12;3.90;;;0.80;;
71351;SDS011;59159;51.652;4.864;2023-03-11T05:17:38;2.47;;;0.60;;
71351;SDS011;59159;51.652;4.864;2023-03-11T05:20:04;3.70;;;0.90;;
71351;SDS011;59159;51.652;4.864;2023-03-11T05:22:31;2.08;;;0.60;;
71351;SDS011;59159;51.652;4.864;2023-03-11T05:24:57;3.93;;;0.67;;
71351;SDS011;59159;51.652;4.864;2023-03-11T05:27:23;2.30;;;0.60;;
71351;SDS011;59159;51.652;4.864;2023-03-11T05:29:49;4.15;;;0.88;;
71351;SDS011;59159;51.652;4.864;2023-03-11T05:32:16;2.60;;;0.60;;
71351;SDS011;59159;51.652;4.864;2023-03-11T05:34:43;4.15;;;1.02;;
71351;SDS011;59159;51.652;4.864;2023-03-11T05:37:09;2.85;;;0.63;;
71351;SDS011;59159;51.652;4.864;2023-03-11T05:39:35;3.28;;;0.88;;
71351;SDS011;59159;51.652;4.864;2023-03-11T05:42:02;4.87;;;0.80;;
71351;SDS011;59159;51.652;4.864;2023-03-11T05:44:28;4.43;;;0.88;;
71351;SDS011;59159;51.652;4.864;2023-03-11T05:46:54;3.58;;;0.90;;
71351;SDS011;59159;51.652;4.864;2023-03-11T05:49:20;2.93;;;0.73;;
71351;SDS011;59159;51.652;4.864;2023-03-11T05:51:46;3.25;;;0.50;;
71351;SDS011;59159;51.652;4.864;2023-03-11T05:54:12;3.15;;;0.70;;
71351;SDS011;59159;51.652;4.864;2023-03-11T05:56:41;3.40;;;0.70;;
71351;SDS011;59159;51.652;4.864;2023-03-11T05:59:08;4.13;;;0.70;;
71351;SDS011;59159;51.652;4.864;2023-03-11T06:01:34;3.72;;;0.70;;
71351;SDS011;59159;51.652;4.864;2023-03-11T06:04:00;4.13;;;0.70;;
71351;SDS011;59159;51.652;4.864;2023-03-11T06:06:26;3.33;;;0.70;;
71351;SDS011;59159;51.652;4.864;2023-03-11T06:08:53;2.47;;;0.60;;
71351;SDS011;59159;51.652;4.864;2023-03-11T06:11:19;3.38;;;0.70;;
71351;SDS011;59159;51.652;4.864;2023-03-11T06:13:45;3.10;;;0.70;;
71351;SDS011;59159;51.652;4.864;2023-03-11T06:16:11;2.63;;;0.68;;
71351;SDS011;59159;51.652;4.864;2023-03-11T06:18:37;2.40;;;0.60;;
71351;SDS011;59159;51.652;4.864;2023-03-11T06:21:04;2.83;;;0.70;;
71351;SDS011;59159;51.652;4.864;2023-03-11T06:23:32;3.92;;;0.63;;
71351;SDS011;59159;51.652;4.864;2023-03-11T06:25:59;3.70;;;0.98;;
71351;SDS011;59159;51.652;4.864;2023-03-11T06:28:27;2.65;;;0.80;;
71351;SDS011;59159;51.652;4.864;2023-03-11T06:30:53;3.13;;;0.83;;
71351;SDS011;59159;51.652;4.864;2023-03-11T06:33:21;4.75;;;0.80;;
71351;SDS011;59159;51.652;4.864;2023-03-11T06:36:00;3.95;;;0.90;;
71351;SDS011;59159;51.652;4.864;2023-03-11T06:38:26;3.40;;;0.70;;
71351;SDS011;59159;51.652;4.864;2023-03-11T06:40:52;2.70;;;0.77;;
71351;SDS011;59159;51.652;4.864;2023-03-11T06:43:20;3.58;;;0.80;;
71351;SDS011;59159;51.652;4.864;2023-03-11T06:45:46;3.93;;;1.10;;
71351;SDS011;59159;51.652;4.864;2023-03-11T06:48:12;3.78;;;0.60;;
71351;SDS011;59159;51.652;4.864;2023-03-11T06:50:38;4.32;;;1.05;;
71351;SDS011;59159;51.652;4.864;2023-03-11T06:53:04;3.47;;;0.60;;
71351;SDS011;59159;51.652;4.864;2023-03-11T06:55:31;2.70;;;0.70;;
71351;SDS011;59159;51.652;4.864;2023-03-11T06:57:57;5.53;;;0.80;;
71351;SDS011;59159;51.652;4.864;2023-03-11T07:00:23;3.33;;;1.08;;
71351;SDS011;59159;51.652;4.864;2023-03-11T07:02:49;4.97;;;1.40;;
71351;SDS011;59159;51.652;4.864;2023-03-11T07:05:15;4.30;;;1.70;;
71351;SDS011;59159;51.652;4.864;2023-03-11T07:07:42;5.32;;;1.80;;
71351;SDS011;59159;51.652;4.864;2023-03-11T07:10:08;5.90;;;2.50;;
71351;SDS011;59159;51.652;4.864;2023-03-11T07:12:35;6.82;;;2.67;;
71351;SDS011;59159;51.652;4.864;2023-03-11T07:15:01;9.73;;;3.42;;
71351;SDS011;59159;51.652;4.864;2023-03-11T07:17:27;9.43;;;3.88;;
71351;SDS011;59159;51.652;4.864;2023-03-11T07:19:53;9.57;;;3.00;;
71351;SDS011;59159;51.652;4.864;2023-03-11T07:22:19;7.72;;;2.35;;
71351;SDS011;59159;51.652;4.864;2023-03-11T07:24:45;9.27;;;2.47;;
71351;SDS011;59159;51.652;4.864;2023-03-11T07:27:11;8.70;;;2.17;;
71351;SDS011;59159;51.652;4.864;2023-03-11T07:29:37;11.75;;;2.63;;
71351;SDS011;59159;51.652;4.864;2023-03-11T07:32:03;7.38;;;2.40;;
71351;SDS011;59159;51.652;4.864;2023-03-11T07:34:31;8.27;;;2.00;;
71351;SDS011;59159;51.652;4.864;2023-03-11T07:36:57;5.95;;;1.80;;
71351;SDS011;59159;51.652;4.864;2023-03-11T07:39:23;7.90;;;1.88;;
71351;SDS011;59159;51.652;4.864;2023-03-11T07:41:49;5.20;;;1.58;;
71351;SDS011;59159;51.652;4.864;2023-03-11T07:44:15;6.93;;;2.13;;
71351;SDS011;59159;51.652;4.864;2023-03-11T07:46:41;8.50;;;1.90;;
71351;SDS011;59159;51.652;4.864;2023-03-11T07:49:08;6.40;;;1.45;;
71351;SDS011;59159;51.652;4.864;2023-03-11T07:51:34;5.27;;;1.70;;
71351;SDS011;59159;51.652;4.864;2023-03-11T07:54:01;8.38;;;1.85;;
71351;SDS011;59159;51.652;4.864;2023-03-11T07:56:28;7.75;;;1.65;;
71351;SDS011;59159;51.652;4.864;2023-03-11T07:58:55;7.50;;;1.60;;
71351;SDS011;59159;51.652;4.864;2023-03-11T08:01:22;6.32;;;1.60;;
71351;SDS011;59159;51.652;4.864;2023-03-11T08:03:49;5.95;;;1.65;;
71351;SDS011;59159;51.652;4.864;2023-03-11T08:06:20;5.18;;;1.63;;
71351;SDS011;59159;51.652;4.864;2023-03-11T08:08:46;5.07;;;1.23;;
71351;SDS011;59159;51.652;4.864;2023-03-11T08:11:13;8.45;;;1.67;;
71351;SDS011;59159;51.652;4.864;2023-03-11T08:13:39;5.50;;;1.58;;
71351;SDS011;59159;51.652;4.864;2023-03-11T08:16:06;5.50;;;1.20;;
71351;SDS011;59159;51.652;4.864;2023-03-11T08:18:32;6.57;;;1.40;;
71351;SDS011;59159;51.652;4.864;2023-03-11T08:21:02;5.45;;;1.40;;
71351;SDS011;59159;51.652;4.864;2023-03-11T08:23:28;4.50;;;1.13;;
71351;SDS011;59159;51.652;4.864;2023-03-11T08:25:54;5.22;;;1.15;;
71351;SDS011;59159;51.652;4.864;2023-03-11T08:28:20;7.10;;;1.30;;
71351;SDS011;59159;51.652;4.864;2023-03-11T08:30:46;6.60;;;1.35;;
71351;SDS011;59159;51.652;4.864;2023-03-11T08:33:12;5.23;;;1.10;;
71351;SDS011;59159;51.652;4.864;2023-03-11T08:35:38;6.80;;;1.48;;
71351;SDS011;59159;51.652;4.864;2023-03-11T08:38:04;6.00;;;1.15;;
71351;SDS011;59159;51.652;4.864;2023-03-11T08:40:30;5.17;;;1.00;;
71351;SDS011;59159;51.652;4.864;2023-03-11T08:42:56;6.75;;;1.05;;
71351;SDS011;59159;51.652;4.864;2023-03-11T08:45:22;5.10;;;1.08;;
71351;SDS011;59159;51.652;4.864;2023-03-11T08:47:48;4.80;;;1.10;;
71351;SDS011;59159;51.652;4.864;2023-03-11T08:50:15;4.00;;;0.95;;
71351;SDS011;59159;51.652;4.864;2023-03-11T08:52:41;3.95;;;1.02;;
71351;SDS011;59159;51.652;4.864;2023-03-11T08:55:08;5.38;;;0.90;;
71351;SDS011;59159;51.652;4.864;2023-03-11T08:57:35;4.37;;;1.13;;
71351;SDS011;59159;51.652;4.864;2023-03-11T09:00:03;4.30;;;0.98;;
71351;SDS011;59159;51.652;4.864;2023-03-11T09:02:29;3.85;;;1.05;;
71351;SDS011;59159;51.652;4.864;2023-03-11T09:04:55;4.00;;;0.83;;
71351;SDS011;59159;51.652;4.864;2023-03-11T09:07:21;4.55;;;1.00;;
71351;SDS011;59159;51.652;4.864;2023-03-11T09:09:47;4.95;;;1.05;;
71351;SDS011;59159;51.652;4.864;2023-03-11T09:12:13;3.27;;;0.73;;
71351;SDS011;59159;51.652;4.864;2023-03-11T09:14:40;3.65;;;0.77;;
71351;SDS011;59159;51.652;4.864;2023-03-11T09:17:06;4.68;;;0.90;;
71351;SDS011;59159;51.652;4.864;2023-03-11T09:19:33;3.42;;;1.02;;
71351;SDS011;59159;51.652;4.864;2023-03-11T09:22:00;3.87;;;0.80;;
71351;SDS011;59159;51.652;4.864;2023-03-11T09:24:26;3.33;;;0.88;;
71351;SDS011;59159;51.652;4.864;2023-03-11T09:26:52;5.03;;;0.80;;
71351;SDS011;59159;51.652;4.864;2023-03-11T09:29:18;4.03;;;1.00;;
71351;SDS011;59159;51.652;4.864;2023-03-11T09:31:44;3.65;;;0.88;;
71351;SDS011;59159;51.652;4.864;2023-03-11T09:34:11;4.55;;;0.98;;
71351;SDS011;59159;51.652;4.864;2023-03-11T09:36:39;3.50;;;1.00;;
71351;SDS011;59159;51.652;4.864;2023-03-11T09:39:05;4.35;;;1.00;;
71351;SDS011;59159;51.652;4.864;2023-03-11T09:41:38;3.05;;;0.80;;
71351;SDS011;59159;51.652;4.864;2023-03-11T09:44:17;5.13;;;1.02;;
71351;SDS011;59159;51.652;4.864;2023-03-11T09:46:59;4.87;;;0.90;;
71351;SDS011;59159;51.652;4.864;2023-03-11T09:52:09;5.80;;;1.17;;
71351;SDS011;59159;51.652;4.864;2023-03-11T09:54:36;6.40;;;0.70;;
71351;SDS011;59159;51.652;4.864;2023-03-11T09:57:03;4.93;;;0.75;;
71351;SDS011;59159;51.652;4.864;2023-03-11T09:59:30;4.28;;;0.90;;
71351;SDS011;59159;51.652;4.864;2023-03-11T10:01:57;4.33;;;0.70;;
71351;SDS011;59159;51.652;4.864;2023-03-11T10:04:25;5.18;;;0.80;;
71351;SDS011;59159;51.652;4.864;2023-03-11T10:06:52;4.57;;;0.85;;
71351;SDS011;59159;51.652;4.864;2023-03-11T10:12:00;4.20;;;0.70;;
71351;SDS011;59159;51.652;4.864;2023-03-11T10:22:01;3.00;;;0.60;;
71351;SDS011;59159;51.652;4.864;2023-03-11T10:27:08;4.53;;;1.00;;
71351;SDS011;59159;51.652;4.864;2023-03-11T10:29:42;3.92;;;0.98;;
71351;SDS011;59159;51.652;4.864;2023-03-11T10:32:14;11.05;;;2.20;;
71351;SDS011;59159;51.652;4.864;2023-03-11T10:34:43;16.85;;;5.70;;
71351;SDS011;59159;51.652;4.864;2023-03-11T10:37:11;15.77;;;9.63;;
71351;SDS011;59159;51.652;4.864;2023-03-11T10:39:39;9.45;;;3.97;;
71351;SDS011;59159;51.652;4.864;2023-03-11T10:42:09;8.02;;;3.30;;
71351;SDS011;59159;51.652;4.864;2023-03-11T10:44:37;9.73;;;3.27;;
71351;SDS011;59159;51.652;4.864;2023-03-11T10:47:04;10.80;;;3.38;;
71351;SDS011;59159;51.652;4.864;2023-03-11T10:49:30;7.30;;;2.45;;
71351;SDS011;59159;51.652;4.864;2023-03-11T10:51:56;11.03;;;3.20;;
71351;SDS011;59159;51.652;4.864;2023-03-11T10:54:29;12.55;;;2.30;;
71351;SDS011;59159;51.652;4.864;2023-03-11T10:56:57;7.18;;;2.05;;
71351;SDS011;59159;51.652;4.864;2023-03-11T11:04:39;7.68;;;2.33;;
71351;SDS011;59159;51.652;4.864;2023-03-11T11:07:19;6.95;;;1.70;;
71351;SDS011;59159;51.652;4.864;2023-03-11T11:09:45;7.13;;;1.63;;
71351;SDS011;59159;51.652;4.864;2023-03-11T11:12:13;6.40;;;1.63;;
71351;SDS011;59159;51.652;4.864;2023-03-11T11:14:49;6.90;;;2.05;;
71351;SDS011;59159;51.652;4.864;2023-03-11T11:17:17;10.07;;;2.20;;
71351;SDS011;59159;51.652;4.864;2023-03-11T11:19:44;6.65;;;1.27;;
71351;SDS011;59159;51.652;4.864;2023-03-11T11:22:12;7.25;;;1.58;;
71351;SDS011;59159;51.652;4.864;2023-03-11T11:24:44;6.95;;;1.60;;
71351;SDS011;59159;51.652;4.864;2023-03-11T11:29:36;6.90;;;1.52;;
71351;SDS011;59159;51.652;4.864;2023-03-11T11:32:15;7.25;;;1.08;;
71351;SDS011;59159;51.652;4.864;2023-03-11T11:34:52;4.37;;;0.63;;
71351;SDS011;59159;51.652;4.864;2023-03-11T11:37:18;5.85;;;1.13;;
71351;SDS011;59159;51.652;4.864;2023-03-11T11:39:49;7.65;;;0.90;;
71351;SDS011;59159;51.652;4.864;2023-03-11T11:42:17;6.87;;;0.80;;
71351;SDS011;59159;51.652;4.864;2023-03-11T11:44:45;3.47;;;1.27;;
71351;SDS011;59159;51.652;4.864;2023-03-11T11:47:22;4.70;;;0.75;;
71351;SDS011;59159;51.652;4.864;2023-03-11T11:49:51;3.00;;;0.60;;
71351;SDS011;59159;51.652;4.864;2023-03-11T11:52:21;2.67;;;0.60;;
71351;SDS011;59159;51.652;4.864;2023-03-11T11:57:44;5.38;;;0.88;;
71351;SDS011;59159;51.652;4.864;2023-03-11T12:00:18;4.03;;;0.50;;
71351;SDS011;59159;51.652;4.864;2023-03-11T12:05:30;316.55;;;43.38;;
71351;SDS011;59159;51.652;4.864;2023-03-11T12:08:04;322.17;;;40.07;;
71351;SDS011;59159;51.652;4.864;2023-03-11T12:10:32;178.18;;;28.02;;
71351;SDS011;59159;51.652;4.864;2023-03-11T12:18:38;218.53;;;25.73;;
71351;SDS011;59159;51.652;4.864;2023-03-11T12:21:09;200.00;;;24.35;;
71351;SDS011;59159;51.652;4.864;2023-03-11T12:23:43;143.07;;;18.38;;
71351;SDS011;59159;51.652;4.864;2023-03-11T12:26:17;117.90;;;14.83;;
71351;SDS011;59159;51.652;4.864;2023-03-11T12:28:55;104.82;;;13.70;;
71351;SDS011;59159;51.652;4.864;2023-03-11T12:31:22;84.80;;;8.75;;
71351;SDS011;59159;51.652;4.864;2023-03-11T12:33:57;596.93;;;76.97;;
71351;SDS011;59159;51.652;4.864;2023-03-11T12:36:30;1707.60;;;288.75;;
71351;SDS011;59159;51.652;4.864;2023-03-11T12:38:57;877.72;;;139.27;;
71351;SDS011;59159;51.652;4.864;2023-03-11T12:41:34;713.20;;;108.53;;
71351;SDS011;59159;51.652;4.864;2023-03-11T12:44:25;595.17;;;88.83;;
71351;SDS011;59159;51.652;4.864;2023-03-11T12:49:32;468.42;;;56.28;;
71351;SDS011;59159;51.652;4.864;2023-03-11T12:52:02;428.83;;;55.13;;
71351;SDS011;59159;51.652;4.864;2023-03-11T12:59:40;227.33;;;27.20;;
71351;SDS011;59159;51.652;4.864;2023-03-11T13:07:35;1092.70;;;193.88;;
71351;SDS011;59159;51.652;4.864;2023-03-11T13:10:16;1543.80;;;270.50;;
71351;SDS011;59159;51.652;4.864;2023-03-11T13:12:43;720.50;;;108.20;;
71351;SDS011;59159;51.652;4.864;2023-03-11T13:18:46;274.40;;;28.93;;
71351;SDS011;59159;51.652;4.864;2023-03-11T13:25:36;81.60;;;10.67;;
71351;SDS011;59159;51.652;4.864;2023-03-11T13:28:16;62.13;;;6.45;;
71351;SDS011;59159;51.652;4.864;2023-03-11T13:30:52;41.67;;;3.67;;
71351;SDS011;59159;51.652;4.864;2023-03-11T13:33:24;35.85;;;4.18;;
71351;SDS011;59159;51.652;4.864;2023-03-11T13:40:43;43.75;;;4.60;;
71351;SDS011;59159;51.652;4.864;2023-03-11T13:43:12;29.30;;;3.47;;
71351;SDS011;59159;51.652;4.864;2023-03-11T13:45:39;23.63;;;2.50;;
71351;SDS011;59159;51.652;4.864;2023-03-11T13:48:06;23.05;;;3.35;;
71351;SDS011;59159;51.652;4.864;2023-03-11T13:50:39;54.50;;;4.83;;
71351;SDS011;59159;51.652;4.864;2023-03-11T13:53:08;30.55;;;4.35;;
71351;SDS011;59159;51.652;4.864;2023-03-11T13:55:41;637.65;;;94.32;;
71351;SDS011;59159;51.652;4.864;2023-03-11T13:58:22;502.98;;;67.85;;
71351;SDS011;59159;51.652;4.864;2023-03-11T14:00:55;305.07;;;39.10;;
71351;SDS011;59159;51.652;4.864;2023-03-11T14:03:23;103.30;;;12.40;;
71351;SDS011;59159;51.652;4.864;2023-03-11T14:05:55;41.20;;;4.78;;
71351;SDS011;59159;51.652;4.864;2023-03-11T14:08:26;15.87;;;1.60;;
71351;SDS011;59159;51.652;4.864;2023-03-11T14:10:56;18.77;;;2.08;;
71351;SDS011;59159;51.652;4.864;2023-03-11T14:13:23;12.20;;;1.73;;
71351;SDS011;59159;51.652;4.864;2023-03-11T14:18:26;14.98;;;2.00;;
71351;SDS011;59159;51.652;4.864;2023-03-11T14:20:52;11.50;;;1.60;;
71351;SDS011;59159;51.652;4.864;2023-03-11T14:23:19;11.95;;;1.65;;
71351;SDS011;59159;51.652;4.864;2023-03-11T14:25:45;3.00;;;0.77;;
71351;SDS011;59159;51.652;4.864;2023-03-11T14:28:13;13.32;;;2.03;;
71351;SDS011;59159;51.652;4.864;2023-03-11T14:30:42;7.88;;;1.63;;
71351;SDS011;59159;51.652;4.864;2023-03-11T14:33:20;10.83;;;1.03;;
71351;SDS011;59159;51.652;4.864;2023-03-11T14:35:53;12.52;;;0.93;;
71351;SDS011;59159;51.652;4.864;2023-03-11T14:38:20;7.22;;;1.13;;
71351;SDS011;59159;51.652;4.864;2023-03-11T14:40:49;6.83;;;0.77;;
71351;SDS011;59159;51.652;4.864;2023-03-11T14:43:15;7.20;;;1.02;;
71351;SDS011;59159;51.652;4.864;2023-03-11T14:45:41;6.75;;;1.40;;
71351;SDS011;59159;51.652;4.864;2023-03-11T14:48:09;7.28;;;1.00;;
71351;SDS011;59159;51.652;4.864;2023-03-11T14:50:37;16.53;;;2.57;;
71351;SDS011;59159;51.652;4.864;2023-03-11T14:55:54;15.57;;;2.15;;
71351;SDS011;59159;51.652;4.864;2023-03-11T15:00:48;9.45;;;0.90;;
71351;SDS011;59159;51.652;4.864;2023-03-11T15:03:28;11.93;;;1.73;;
71351;SDS011;59159;51.652;4.864;2023-03-11T15:06:11;10.40;;;1.27;;
71351;SDS011;59159;51.652;4.864;2023-03-11T15:08:45;8.90;;;1.48;;
71351;SDS011;59159;51.652;4.864;2023-03-11T15:13:39;6.63;;;1.63;;
71351;SDS011;59159;51.652;4.864;2023-03-11T15:16:21;6.33;;;1.07;;
71351;SDS011;59159;51.652;4.864;2023-03-11T15:18:47;10.38;;;1.88;;
71351;SDS011;59159;51.652;4.864;2023-03-11T15:23:46;4.53;;;0.90;;
71351;SDS011;59159;51.652;4.864;2023-03-11T15:28:45;6.40;;;0.73;;
71351;SDS011;59159;51.652;4.864;2023-03-11T15:33:46;6.32;;;0.80;;
71351;SDS011;59159;51.652;4.864;2023-03-11T15:36:28;4.45;;;0.70;;
71351;SDS011;59159;51.652;4.864;2023-03-11T15:41:36;3.93;;;0.70;;
71351;SDS011;59159;51.652;4.864;2023-03-11T15:44:02;14.15;;;2.63;;
71351;SDS011;59159;51.652;4.864;2023-03-11T15:46:31;7.72;;;1.00;;
71351;SDS011;59159;51.652;4.864;2023-03-11T15:48:58;4.93;;;0.87;;
71351;SDS011;59159;51.652;4.864;2023-03-11T15:51:24;5.57;;;0.80;;
71351;SDS011;59159;51.652;4.864;2023-03-11T15:53:50;9.27;;;0.95;;
71351;SDS011;59159;51.652;4.864;2023-03-11T15:56:18;5.10;;;1.30;;
71351;SDS011;59159;51.652;4.864;2023-03-11T15:58:46;10.10;;;1.38;;
71351;SDS011;59159;51.652;4.864;2023-03-11T16:01:12;8.23;;;0.73;;
71351;SDS011;59159;51.652;4.864;2023-03-11T16:03:38;7.25;;;0.75;;
71351;SDS011;59159;51.652;4.864;2023-03-11T16:06:04;6.13;;;0.73;;
71351;SDS011;59159;51.652;4.864;2023-03-11T16:08:30;6.85;;;1.10;;
71351;SDS011;59159;51.652;4.864;2023-03-11T16:10:57;4.65;;;0.90;;
71351;SDS011;59159;51.652;4.864;2023-03-11T16:13:24;7.53;;;0.77;;